Time;durP1;ratioP1;P1;durP2;ratioP2;P2;SDS_P1;SDS_P2;PMS_P1;PMS_P2;Temp;Humidity;BMP_temperature;BMP_pressure;BME280_temperature;BME280_humidity;BME280_pressure;Samples;Min_cycle;Max_cycle;Signal;HPM_P1;HPM_P2
2023/05/24 00:00:40;;;;;;;16.00;3.15;;;;;;;16.46;96.32;102324.06;5057252;28;20101;-54
2023/05/24 00:03:06;;;;;;;12.38;2.63;;;;;;;16.48;96.82;102323.84;5052901;28;20040;-51
2023/05/24 00:05:32;;;;;;;13.13;3.83;;;;;;;16.45;97.47;102313.44;5052283;28;20168;-52
2023/05/24 00:07:58;;;;;;;10.40;3.17;;;;;;;16.44;97.60;102318.03;5055439;28;20045;-55
2023/05/24 00:10:24;;;;;;;;;;;;;;;16.32;98.83;102311.50;5057520;28;20097;-53
2023/05/24 00:12:50;;;;;;;15.23;2.25;;;;;;;16.39;98.62;102311.53;5053357;28;19913;-54
2023/05/24 00:15:15;;;;;;;19.27;3.37;;;;;;;16.35;99.61;102311.09;5054751;28;20037;-56
2023/05/24 00:17:41;;;;;;;14.60;3.33;;;;;;;16.39;100.00;102301.59;5057025;28;20053;-55
2023/05/24 00:20:10;;;;;;;20.15;2.70;;;;;;;16.36;100.00;102301.97;5036922;28;20033;-51
2023/05/24 00:22:36;;;;;;;14.32;3.25;;;;;;;17.08;94.42;102299.00;5053986;28;20040;-55
2023/05/24 00:25:02;;;;;;;9.93;2.55;;;;;;;16.44;99.10;102304.53;5052687;28;20037;-50
2023/05/24 00:27:28;;;;;;;9.43;3.15;;;;;;;16.19;100.00;102285.25;5056158;28;20090;-55
2023/05/24 00:29:53;;;;;;;27.83;3.97;;;;;;;16.31;100.00;102285.53;5054419;28;20040;-53
2023/05/24 00:32:20;;;;;;;15.00;3.35;;;;;;;16.22;100.00;102294.81;5057632;28;20259;-52
2023/05/24 00:34:45;;;;;;;12.00;3.17;;;;;;;16.16;100.00;102297.28;5052538;28;20056;-52
2023/05/24 00:37:11;;;;;;;17.70;4.77;;;;;;;16.13;100.00;102297.66;5057654;28;20037;-52
2023/05/24 00:39:37;;;;;;;;;;;;;;;16.11;100.00;102294.31;5059156;28;20037;-53
2023/05/24 00:42:03;;;;;;;9.37;2.63;;;;;;;16.00;100.00;102292.19;5057254;28;19917;-51
2023/05/24 00:44:29;;;;;;;10.77;2.88;;;;;;;16.00;100.00;102294.88;5055136;28;20056;-50
2023/05/24 00:46:55;;;;;;;21.42;3.22;;;;;;;15.96;100.00;102290.91;5041528;28;20063;-54
2023/05/24 00:49:21;;;;;;;16.00;3.33;;;;;;;16.47;100.00;102293.31;5047288;28;20037;-53
2023/05/24 00:51:47;;;;;;;12.25;3.10;;;;;;;16.89;98.41;102285.19;5041040;28;20047;-49
2023/05/24 00:54:13;;;;;;;11.55;3.28;;;;;;;17.01;96.39;102288.16;5062815;28;20068;-52
2023/05/24 00:56:41;;;;;;;16.80;3.47;;;;;;;16.81;98.59;102281.81;5041166;28;20022;-50
2023/05/24 00:59:07;;;;;;;12.88;3.05;;;;;;;16.00;100.00;102276.00;5064388;28;20043;-50
2023/05/24 01:01:33;;;;;;;15.70;3.40;;;;;;;15.80;100.00;102276.66;5043428;28;20037;-51
2023/05/24 01:03:58;;;;;;;22.50;3.30;;;;;;;15.79;100.00;102266.88;5042612;28;20034;-52
2023/05/24 01:06:25;;;;;;;23.90;4.20;;;;;;;16.49;100.00;102279.59;5041710;28;20100;-51
2023/05/24 01:09:18;;;;;;;14.63;3.70;;;;;;;16.73;100.00;102274.75;5058387;28;20045;-52
2023/05/24 01:11:54;;;;;;;17.05;3.95;;;;;;;15.81;100.00;102272.09;5062018;28;20034;-52
2023/05/24 01:14:33;;;;;;;20.45;3.28;;;;;;;15.69;100.00;102272.63;5042517;28;20491;-48
2023/05/24 01:17:22;;;;;;;15.80;3.50;;;;;;;16.53;100.00;102275.50;5059129;28;20033;-51
2023/05/24 01:19:53;;;;;;;13.60;3.20;;;;;;;16.61;100.00;102271.78;5039937;28;20041;-55
2023/05/24 01:22:32;;;;;;;14.30;3.63;;;;;;;16.48;100.00;102273.38;5039737;28;20043;-54
2023/05/24 01:25:03;;;;;;;15.18;3.35;;;;;;;15.79;100.00;102269.59;5042709;28;20048;-49
2023/05/24 01:27:32;;;;;;;16.80;3.75;;;;;;;15.65;100.00;102263.25;5041334;28;20029;-53
2023/05/24 01:30:00;;;;;;;11.82;3.45;;;;;;;15.65;100.00;102262.41;5041237;28;20033;-48
2023/05/24 01:32:26;;;;;;;19.77;3.55;;;;;;;15.59;100.00;102264.84;5059261;28;20035;-53
2023/05/24 01:34:51;;;;;;;13.65;3.72;;;;;;;15.59;100.00;102262.16;5042673;28;20105;-51
2023/05/24 01:37:18;;;;;;;15.02;3.40;;;;;;;15.93;100.00;102265.16;5042909;28;20122;-52
2023/05/24 01:39:43;;;;;;;16.37;3.27;;;;;;;15.54;100.00;102255.66;5056332;28;20037;-51
2023/05/24 01:42:30;;;;;;;17.33;3.97;;;;;;;15.55;100.00;102262.72;5040452;28;20064;-51
2023/05/24 01:45:07;;;;;;;16.48;3.63;;;;;;;16.45;100.00;102275.63;5056458;28;20033;-51
2023/05/24 01:47:44;;;;;;;10.85;3.95;;;;;;;15.74;100.00;102272.03;5059653;28;20033;-50
2023/05/24 01:50:19;;;;;;;22.55;3.95;;;;;;;15.51;100.00;102264.16;5056173;28;20145;-48
2023/05/24 01:52:48;;;;;;;13.45;3.50;;;;;;;15.53;100.00;102268.34;5056589;28;20032;-49
2023/05/24 01:55:16;;;;;;;27.30;4.28;;;;;;;15.49;100.00;102272.44;5040583;28;20064;-50
2023/05/24 01:57:45;;;;;;;17.65;4.40;;;;;;;15.53;100.00;102271.03;5039416;28;20160;-48
2023/05/24 02:00:13;;;;;;;25.73;4.75;;;;;;;16.02;100.00;102271.22;5060485;28;20072;-49
2023/05/24 02:02:40;;;;;;;16.35;4.20;;;;;;;16.39;100.00;102284.53;5058600;28;20037;-50
2023/05/24 02:05:06;;;;;;;27.10;4.57;;;;;;;16.25;100.00;102278.22;5058369;28;20169;-50
2023/05/24 02:07:33;;;;;;;20.60;3.90;;;;;;;16.19;100.00;102277.16;5059381;28;20048;-51
2023/05/24 02:10:00;;;;;;;18.45;3.50;;;;;;;16.18;100.00;102289.81;5056836;28;20032;-51
2023/05/24 02:12:25;;;;;;;10.33;4.00;;;;;;;16.27;100.00;102287.81;5058078;28;20034;-48
2023/05/24 02:14:51;;;;;;;24.27;5.43;;;;;;;15.50;100.00;102287.59;5040539;28;20043;-51
2023/05/24 02:17:17;;;;;;;21.40;4.27;;;;;;;15.98;100.00;102289.66;5042441;28;20034;-50
2023/05/24 02:19:43;;;;;;;21.10;4.57;;;;;;;16.08;100.00;102283.94;5037870;28;20029;-50
2023/05/24 02:22:08;;;;;;;12.63;3.50;;;;;;;15.66;100.00;102282.94;5041495;28;20056;-49
2023/05/24 02:24:36;;;;;;;;;;;;;;;16.12;100.00;102289.78;5061380;28;20036;-52
2023/05/24 02:27:02;;;;;;;25.85;6.25;;;;;;;16.20;100.00;102285.06;5055695;28;19913;-55
2023/05/24 02:29:28;;;;;;;21.25;5.00;;;;;;;15.87;100.00;102287.50;5057718;28;20028;-54
2023/05/24 02:31:55;;;;;;;29.90;5.33;;;;;;;16.20;100.00;102282.38;5057182;28;20034;-54
2023/05/24 02:34:22;;;;;;;15.13;4.63;;;;;;;15.99;100.00;102275.16;5039687;28;20462;-54
2023/05/24 02:36:48;;;;;;;26.85;4.93;;;;;;;15.40;100.00;102276.28;5041457;28;20033;-54
2023/05/24 02:39:13;;;;;;;19.95;4.40;;;;;;;15.26;100.00;102278.00;5059072;28;20029;-51
2023/05/24 02:41:40;;;;;;;18.48;4.80;;;;;;;15.09;100.00;102274.72;5060081;28;20040;-49
2023/05/24 02:44:05;;;;;;;20.85;4.40;;;;;;;15.16;100.00;102279.16;5039167;28;20052;-53
2023/05/24 02:46:31;;;;;;;16.80;4.43;;;;;;;15.03;100.00;102282.56;5044925;28;20033;-52
2023/05/24 02:48:56;;;;;;;16.40;4.90;;;;;;;15.03;100.00;102287.94;5054603;28;20059;-50
2023/05/24 02:51:22;;;;;;;20.57;4.83;;;;;;;15.04;100.00;102272.59;5058472;28;20280;-51
2023/05/24 02:53:47;;;;;;;21.05;5.43;;;;;;;14.99;100.00;102266.94;5057569;28;20116;-56
2023/05/24 02:56:15;;;;;;;22.30;4.40;;;;;;;15.04;100.00;102267.22;5039398;28;20044;-53
2023/05/24 02:58:43;;;;;;;19.02;4.43;;;;;;;15.08;100.00;102273.06;5038900;28;20037;-53
2023/05/24 03:01:12;;;;;;;16.38;4.70;;;;;;;14.98;100.00;102273.38;5041887;28;20041;-53
2023/05/24 03:03:38;;;;;;;19.60;5.25;;;;;;;14.95;100.00;102273.75;5039199;28;20060;-52
2023/05/24 03:06:06;;;;;;;24.50;5.75;;;;;;;14.92;100.00;102274.94;5038689;28;20421;-53
2023/05/24 03:08:32;;;;;;;21.90;4.88;;;;;;;14.87;100.00;102266.63;5042361;28;20118;-51
2023/05/24 03:10:58;;;;;;;20.23;4.68;;;;;;;14.88;100.00;102270.97;5056241;28;20083;-52
2023/05/24 03:13:24;;;;;;;12.27;3.97;;;;;;;14.90;100.00;102277.84;5040946;28;20033;-56
2023/05/24 03:15:49;;;;;;;18.57;5.30;;;;;;;14.90;100.00;102266.22;5044343;28;20266;-51
2023/05/24 03:18:15;;;;;;;19.42;4.97;;;;;;;14.83;100.00;102276.91;5042125;28;20060;-49
2023/05/24 03:20:42;;;;;;;21.58;5.63;;;;;;;14.85;100.00;102268.66;5038200;28;20526;-54
2023/05/24 03:23:08;;;;;;;10.60;4.43;;;;;;;14.88;100.00;102265.59;5059146;28;20033;-55
2023/05/24 03:25:34;;;;;;;23.02;5.07;;;;;;;14.88;100.00;102262.91;5040365;28;20100;-52
2023/05/24 03:28:01;;;;;;;19.13;4.95;;;;;;;14.81;100.00;102268.19;5037071;28;20092;-56
2023/05/24 03:30:27;;;;;;;20.42;6.20;;;;;;;14.78;100.00;102268.56;5038908;28;20034;-53
2023/05/24 03:32:55;;;;;;;20.95;5.13;;;;;;;15.22;100.00;102265.94;5040264;28;20089;-50
2023/05/24 03:35:21;;;;;;;22.67;5.10;;;;;;;15.25;100.00;102266.41;5056266;28;20048;-54
2023/05/24 03:37:47;;;;;;;;;;;;;;;15.30;100.00;102268.50;5038644;28;20032;-54
2023/05/24 03:40:13;;;;;;;21.15;4.97;;;;;;;15.28;100.00;102265.19;5041721;28;19944;-56
2023/05/24 03:42:54;;;;;;;19.35;5.85;;;;;;;15.14;100.00;102264.22;5037390;28;20059;-49
2023/05/24 03:45:29;;;;;;;18.95;4.88;;;;;;;15.02;100.00;102270.13;5042186;28;20092;-51
2023/05/24 03:47:57;;;;;;;18.77;4.75;;;;;;;14.98;100.00;102258.03;5058269;28;20774;-49
2023/05/24 03:50:23;;;;;;;29.95;4.95;;;;;;;14.93;100.00;102259.63;5059380;28;20044;-56
2023/05/24 03:52:49;;;;;;;14.27;5.00;;;;;;;14.80;100.00;102261.13;5036749;28;20037;-53
2023/05/24 03:55:15;;;;;;;14.93;4.93;;;;;;;14.73;100.00;102252.16;5039712;28;20282;-55
2023/05/24 03:57:41;;;;;;;20.05;5.53;;;;;;;14.89;100.00;102259.19;5040575;28;20067;-50
2023/05/24 04:00:08;;;;;;;;;;;;;;;15.17;100.00;102253.03;5036921;28;20060;-50
2023/05/24 04:02:39;;;;;;;21.38;4.75;;;;;;;14.82;100.00;102247.50;5056452;28;19924;-50
2023/05/24 04:05:09;;;;;;;35.22;5.85;;;;;;;15.03;100.00;102250.22;5040151;28;20037;-49
2023/05/24 04:07:37;;;;;;;19.73;5.00;;;;;;;14.98;100.00;102255.34;5036135;28;20047;-53
2023/05/24 04:10:05;;;;;;;26.35;5.53;;;;;;;15.10;100.00;102252.16;5055631;28;20056;-51
2023/05/24 04:12:31;;;;;;;21.70;5.55;;;;;;;15.12;100.00;102253.63;5038148;28;20029;-52
2023/05/24 04:14:58;;;;;;;;;;;;;;;14.94;100.00;102251.34;5041969;28;20030;-53
2023/05/24 04:17:24;;;;;;;22.05;4.80;;;;;;;15.01;100.00;102246.91;5040062;28;19913;-53
2023/05/24 04:19:50;;;;;;;26.20;5.65;;;;;;;15.01;100.00;102246.03;5037832;28;20101;-54
2023/05/24 04:22:17;;;;;;;29.05;5.22;;;;;;;14.97;100.00;102256.34;5041862;28;20067;-50
2023/05/24 04:24:46;;;;;;;;;;;;;;;14.81;100.00;102259.28;5038611;28;20148;-53
2023/05/24 04:27:11;;;;;;;24.42;5.90;;;;;;;15.31;100.00;102265.63;5037892;28;19956;-48
2023/05/24 04:29:39;;;;;;;17.40;4.95;;;;;;;15.03;100.00;102261.00;5055335;28;20051;-49
2023/05/24 04:32:05;;;;;;;20.48;5.55;;;;;;;15.45;100.00;102252.28;5057708;28;20025;-52
2023/05/24 04:34:34;;;;;;;17.95;4.75;;;;;;;15.45;100.00;102260.34;5039988;28;20041;-51
2023/05/24 04:37:00;;;;;;;23.33;5.20;;;;;;;15.41;100.00;102264.47;5040606;28;20121;-54
2023/05/24 04:39:30;;;;;;;17.75;6.10;;;;;;;15.00;100.00;102261.38;5035803;28;20112;-53
2023/05/24 04:41:57;;;;;;;26.33;5.75;;;;;;;15.00;100.00;102260.53;5057713;28;20043;-54
2023/05/24 04:44:23;;;;;;;16.08;4.65;;;;;;;15.28;100.00;102260.63;5054040;28;20041;-53
2023/05/24 04:46:49;;;;;;;20.42;7.47;;;;;;;15.58;100.00;102260.50;5059029;28;20093;-52
2023/05/24 04:49:15;;;;;;;22.88;5.93;;;;;;;15.68;100.00;102260.16;5057565;28;20053;-50
2023/05/24 04:51:41;;;;;;;19.42;5.68;;;;;;;15.69;100.00;102263.69;5056537;28;20068;-49
2023/05/24 04:54:09;;;;;;;25.30;5.43;;;;;;;15.71;100.00;102275.13;5055201;28;20029;-52
2023/05/24 04:56:37;;;;;;;27.38;6.22;;;;;;;15.51;100.00;102278.47;5055426;28;20037;-49
2023/05/24 04:59:04;;;;;;;22.30;7.25;;;;;;;15.45;100.00;102279.22;5053772;28;20030;-50
2023/05/24 05:01:30;;;;;;;17.88;5.70;;;;;;;15.70;100.00;102276.97;5057442;28;20033;-49
2023/05/24 05:03:56;;;;;;;33.75;8.35;;;;;;;15.88;100.00;102278.38;5057305;28;20050;-50
2023/05/24 05:06:21;;;;;;;24.43;7.50;;;;;;;15.98;100.00;102284.28;5038315;28;20048;-52
2023/05/24 05:08:46;;;;;;;17.93;6.70;;;;;;;15.80;100.00;102281.19;5052767;28;20064;-48
2023/05/24 05:11:13;;;;;;;27.50;7.20;;;;;;;15.96;100.00;102278.25;5055527;28;20061;-52
2023/05/24 05:13:38;;;;;;;20.93;7.20;;;;;;;16.05;100.00;102274.38;5053745;28;20037;-51
2023/05/24 05:16:04;;;;;;;25.30;8.90;;;;;;;16.20;100.00;102274.28;5054619;28;20033;-52
2023/05/24 05:18:30;;;;;;;18.63;7.20;;;;;;;16.39;100.00;102280.00;5053730;28;20026;-49
2023/05/24 05:20:57;;;;;;;25.08;8.25;;;;;;;15.82;100.00;102274.59;5053029;28;20049;-49
2023/05/24 05:23:22;;;;;;;28.75;9.27;;;;;;;15.86;100.00;102265.06;5055574;28;20041;-50
2023/05/24 05:25:48;;;;;;;27.83;8.20;;;;;;;15.88;100.00;102263.03;5058623;28;20043;-50
2023/05/24 05:28:13;;;;;;;24.70;8.53;;;;;;;15.95;100.00;102276.56;5061896;28;20041;-53
2023/05/24 05:30:39;;;;;;;22.92;9.02;;;;;;;15.75;100.00;102279.09;5059358;28;20045;-53
2023/05/24 05:33:04;;;;;;;27.47;8.10;;;;;;;15.88;100.00;102278.38;5058015;28;20029;-50
2023/05/24 05:35:31;;;;;;;30.17;8.57;;;;;;;16.05;100.00;102284.31;5057642;28;20289;-53
2023/05/24 05:37:57;;;;;;;23.17;7.60;;;;;;;16.17;100.00;102274.66;5061020;28;20034;-53
2023/05/24 05:40:22;;;;;;;21.13;5.70;;;;;;;16.22;100.00;102290.25;5056614;28;20599;-56
2023/05/24 05:42:48;;;;;;;26.73;7.85;;;;;;;16.39;100.00;102285.38;5061075;28;20075;-53
2023/05/24 05:45:14;;;;;;;25.00;5.80;;;;;;;16.35;100.00;102281.41;5058135;28;20046;-54
2023/05/24 05:47:40;;;;;;;21.20;6.03;;;;;;;16.41;100.00;102288.72;5065241;28;20025;-56
2023/05/24 05:50:06;;;;;;;12.48;5.47;;;;;;;16.52;100.00;102294.56;5060234;28;20033;-50
2023/05/24 05:52:32;;;;;;;26.67;6.10;;;;;;;16.61;100.00;102290.69;5056598;28;20033;-54
2023/05/24 05:54:59;;;;;;;19.83;5.65;;;;;;;17.27;100.00;102291.97;5059048;28;20097;-49
2023/05/24 05:57:24;;;;;;;21.88;4.82;;;;;;;17.02;100.00;102295.22;5058192;28;20037;-52
2023/05/24 05:59:50;;;;;;;30.92;7.18;;;;;;;16.35;100.00;102292.19;5067366;28;20030;-50
2023/05/24 06:02:21;;;;;;;21.75;4.05;;;;;;;16.78;100.00;102296.59;5059762;28;20037;-56
2023/05/24 06:04:47;;;;;;;18.95;5.38;;;;;;;16.75;100.00;102292.41;5060341;28;20053;-53
2023/05/24 06:07:12;;;;;;;22.35;5.53;;;;;;;16.60;100.00;102291.69;5056015;28;20033;-54
2023/05/24 06:09:38;;;;;;;24.55;5.50;;;;;;;16.71;100.00;102296.53;5056856;28;20046;-52
2023/05/24 06:12:04;;;;;;;16.80;3.80;;;;;;;17.04;100.00;102301.25;5055478;28;20060;-52
2023/05/24 06:14:31;;;;;;;23.92;5.20;;;;;;;17.15;100.00;102309.84;5058299;28;20096;-54
2023/05/24 06:16:57;;;;;;;25.57;5.80;;;;;;;16.90;100.00;102299.53;5060645;28;20036;-49
2023/05/24 06:19:22;;;;;;;24.50;6.28;;;;;;;16.83;100.00;102298.66;5056534;28;20330;-52
2023/05/24 06:21:49;;;;;;;15.07;4.55;;;;;;;17.24;100.00;102291.56;5054919;28;20048;-55
2023/05/24 06:24:20;;;;;;;18.70;5.05;;;;;;;17.33;100.00;102291.16;5056940;28;20041;-55
2023/05/24 06:26:51;;;;;;;26.97;5.20;;;;;;;17.17;100.00;102291.53;5056460;28;20025;-54
2023/05/24 06:29:20;;;;;;;23.27;5.43;;;;;;;17.37;100.00;102293.44;5057197;28;20301;-49
2023/05/24 06:31:46;;;;;;;19.43;4.50;;;;;;;17.56;100.00;102298.06;5054049;28;20289;-50
2023/05/24 06:34:15;;;;;;;10.07;3.78;;;;;;;17.64;100.00;102307.81;5058537;28;20301;-49
2023/05/24 06:36:41;;;;;;;20.23;3.40;;;;;;;17.58;100.00;102314.91;5044650;28;20045;-49
2023/05/24 06:39:12;;;;;;;14.27;3.03;;;;;;;17.72;100.00;102317.59;5039927;28;20338;-52
2023/05/24 06:41:38;;;;;;;18.63;4.40;;;;;;;17.73;100.00;102313.88;5056059;28;20034;-53
2023/05/24 06:44:03;;;;;;;11.00;3.08;;;;;;;17.50;100.00;102323.19;5058138;28;20344;-50
2023/05/24 06:46:30;;;;;;;19.77;3.88;;;;;;;17.55;100.00;102325.31;5037293;28;20042;-51
2023/05/24 06:48:55;;;;;;;7.82;2.80;;;;;;;17.95;98.48;102329.91;5058634;28;20036;-53
2023/05/24 06:51:20;;;;;;;18.47;4.43;;;;;;;18.13;98.20;102315.78;5051499;28;20029;-51
2023/05/24 06:53:46;;;;;;;14.63;3.50;;;;;;;18.24;96.47;102320.53;5057029;28;20029;-53
2023/05/24 06:56:11;;;;;;;12.77;4.07;;;;;;;18.21;91.94;102320.97;5056563;28;20048;-52
2023/05/24 06:58:37;;;;;;;20.80;3.85;;;;;;;18.20;94.20;102322.81;5059918;28;20033;-54
2023/05/24 07:01:03;;;;;;;10.10;3.30;;;;;;;18.51;89.29;102319.66;5056033;28;20072;-54
2023/05/24 07:03:30;;;;;;;15.83;3.63;;;;;;;18.68;84.87;102318.13;5057743;28;20032;-50
2023/05/24 07:05:57;;;;;;;16.97;3.53;;;;;;;18.61;85.44;102314.59;5060043;28;20338;-51
2023/05/24 07:08:23;;;;;;;24.75;4.70;;;;;;;18.47;89.35;102320.09;5057150;28;20317;-51
2023/05/24 07:10:49;;;;;;;19.17;3.20;;;;;;;18.19;90.94;102317.63;5058582;28;20060;-50
2023/05/24 07:13:15;;;;;;;13.15;3.30;;;;;;;18.30;90.81;102321.56;5057811;28;20270;-51
2023/05/24 07:15:41;;;;;;;14.40;3.72;;;;;;;17.95;92.62;102327.19;5059638;28;20087;-50
2023/05/24 07:18:08;;;;;;;19.33;4.23;;;;;;;18.44;89.06;102327.78;5059331;28;20040;-49
2023/05/24 07:20:34;;;;;;;19.33;4.50;;;;;;;18.28;91.36;102329.91;5059404;28;20266;-51
2023/05/24 07:23:00;;;;;;;9.40;3.08;;;;;;;18.84;84.41;102316.84;5062930;28;20044;-54
2023/05/24 07:25:26;;;;;;;;;;;;;;;19.38;79.88;102329.31;5061345;28;20081;-53
2023/05/24 07:27:52;;;;;;;13.90;2.87;;;;;;;19.61;80.58;102320.59;5058921;28;19916;-55
2023/05/24 07:30:17;;;;;;;17.57;3.63;;;;;;;19.24;81.04;102321.25;5055610;28;20048;-53
2023/05/24 07:32:43;;;;;;;8.17;2.60;;;;;;;19.57;79.79;102322.06;5062308;28;20266;-57
2023/05/24 07:35:11;;;;;;;10.15;3.08;;;;;;;19.70;77.26;102326.56;5056577;28;20048;-54
2023/05/24 07:37:38;;;;;;;10.23;2.97;;;;;;;19.85;77.12;102332.50;5053549;28;20045;-56
2023/05/24 07:40:07;;;;;;;12.87;3.90;;;;;;;19.98;75.53;102330.75;5056841;28;20292;-53
2023/05/24 07:42:32;;;;;;;7.07;2.33;;;;;;;20.06;75.11;102336.72;5055461;28;20279;-56
2023/05/24 07:44:58;;;;;;;7.60;2.87;;;;;;;19.95;74.38;102333.91;5058535;28;20334;-52
2023/05/24 07:47:23;;;;;;;12.93;2.43;;;;;;;19.94;73.91;102332.25;5060262;28;20033;-56
2023/05/24 07:49:49;;;;;;;14.18;2.63;;;;;;;20.26;73.23;102333.00;5058455;28;20044;-57
2023/05/24 07:52:14;;;;;;;16.17;3.00;;;;;;;20.44;73.46;102334.88;5055073;28;20057;-54
2023/05/24 07:54:41;;;;;;;13.10;3.58;;;;;;;20.51;72.64;102334.81;5057480;28;20029;-56
2023/05/24 07:57:07;;;;;;;7.70;2.90;;;;;;;20.27;72.10;102328.38;5053039;28;20039;-52
2023/05/24 07:59:33;;;;;;;8.07;2.78;;;;;;;20.80;69.10;102331.59;5057302;28;20030;-53
2023/05/24 08:02:02;;;;;;;13.60;4.18;;;;;;;20.99;68.98;102335.13;5054602;28;20039;-54
2023/05/24 08:04:28;;;;;;;13.10;2.90;;;;;;;21.08;68.01;102338.34;5054411;28;20175;-52
2023/05/24 08:06:55;;;;;;;15.30;3.40;;;;;;;21.15;68.67;102344.53;5050795;28;20348;-55
2023/05/24 08:09:21;;;;;;;11.05;2.92;;;;;;;21.01;68.37;102347.44;5052344;28;20046;-52
2023/05/24 08:11:47;;;;;;;19.97;2.93;;;;;;;21.17;67.77;102337.81;5059488;28;20083;-52
2023/05/24 08:14:12;;;;;;;18.17;2.92;;;;;;;20.94;67.86;102333.09;5053406;28;20267;-52
2023/05/24 08:16:37;;;;;;;9.10;3.22;;;;;;;21.17;67.34;102336.97;5059450;28;20059;-54
2023/05/24 08:19:03;;;;;;;13.32;2.97;;;;;;;21.19;65.60;102329.41;5056869;28;20045;-55
2023/05/24 08:21:29;;;;;;;7.97;2.87;;;;;;;20.96;65.39;102335.59;5056875;28;20034;-52
2023/05/24 08:23:55;;;;;;;9.73;2.70;;;;;;;21.30;65.74;102335.94;5055601;28;20030;-58
2023/05/24 08:26:21;;;;;;;9.35;3.00;;;;;;;21.32;65.54;102331.94;5059593;28;20111;-54
2023/05/24 08:28:46;;;;;;;11.00;3.75;;;;;;;20.90;66.48;102331.88;5054539;28;20030;-54
2023/05/24 08:31:12;;;;;;;12.15;3.95;;;;;;;20.84;66.65;102333.63;5058529;28;20033;-53
2023/05/24 08:33:38;;;;;;;17.73;3.85;;;;;;;20.54;67.65;102323.50;5059074;28;20064;-53
2023/05/24 08:36:03;;;;;;;13.50;2.90;;;;;;;20.96;65.97;102330.97;5039652;28;20041;-49
2023/05/24 08:38:29;;;;;;;14.73;3.63;;;;;;;20.69;66.65;102327.72;5058890;28;20350;-49
2023/05/24 08:40:54;;;;;;;10.82;3.00;;;;;;;21.34;65.36;102329.00;5054424;28;20061;-52
2023/05/24 08:43:21;;;;;;;12.25;3.10;;;;;;;21.52;63.81;102328.09;5053642;28;20041;-50
2023/05/24 08:45:48;;;;;;;9.33;2.87;;;;;;;21.50;64.74;102319.34;5055452;28;20037;-56
2023/05/24 08:48:16;;;;;;;8.80;2.47;;;;;;;21.83;63.23;102312.53;5063603;28;20270;-51
2023/05/24 08:50:43;;;;;;;7.93;2.13;;;;;;;21.72;63.15;102314.19;5057490;28;20305;-54
2023/05/24 08:53:10;;;;;;;15.47;3.60;;;;;;;21.43;63.48;102313.16;5051822;28;20267;-52
2023/05/24 08:55:37;;;;;;;7.57;2.50;;;;;;;21.69;62.73;102311.94;5060085;28;20258;-48
2023/05/24 08:58:04;;;;;;;12.27;3.53;;;;;;;22.30;60.78;102317.16;5051399;28;20026;-54
2023/05/24 09:00:29;;;;;;;;;;;;;;;22.54;59.80;102317.13;5057791;28;20029;-51
2023/05/24 09:02:56;;;;;;;12.07;2.90;;;;;;;22.94;58.11;102315.47;5058515;28;19927;-49
2023/05/24 09:05:24;;;;;;;12.23;3.23;;;;;;;23.24;57.21;102308.91;5043987;28;20048;-50
2023/05/24 09:07:51;;;;;;;17.07;4.57;;;;;;;23.04;55.96;102307.47;5058661;28;20093;-51
2023/05/24 09:10:18;;;;;;;9.10;3.33;;;;;;;23.06;56.48;102308.03;5058067;28;20053;-53
2023/05/24 09:12:48;;;;;;;8.87;3.87;;;;;;;23.19;56.24;102296.03;5058769;28;20033;-50
2023/05/24 09:15:14;;;;;;;13.80;3.17;;;;;;;23.52;55.07;102307.22;5060822;28;20037;-52
2023/05/24 09:17:39;;;;;;;13.50;3.88;;;;;;;23.28;55.66;102310.09;5056156;28;20090;-54
2023/05/24 09:20:08;;;;;;;11.20;2.78;;;;;;;22.89;55.16;102304.47;5037449;28;20052;-51
2023/05/24 09:22:36;;;;;;;9.57;3.20;;;;;;;23.04;55.67;102303.94;5058644;28;20029;-53
2023/05/24 09:25:04;;;;;;;7.13;2.07;;;;;;;23.30;56.00;102310.72;5057167;28;20059;-50
2023/05/24 09:27:31;;;;;;;16.20;3.13;;;;;;;23.61;54.70;102315.84;5056321;28;20040;-51
2023/05/24 09:29:57;;;;;;;11.13;2.70;;;;;;;23.95;53.72;102307.66;5061717;28;20037;-55
2023/05/24 09:32:23;;;;;;;10.70;2.92;;;;;;;24.34;52.35;102315.03;5061341;28;20059;-54
2023/05/24 09:34:51;;;;;;;12.95;2.67;;;;;;;24.27;51.72;102315.22;5058100;28;20061;-54
2023/05/24 09:37:20;;;;;;;17.40;3.60;;;;;;;23.73;52.69;102318.50;5060230;28;20045;-52
2023/05/24 09:39:50;;;;;;;9.87;2.23;;;;;;;23.88;52.46;102316.00;5056632;28;20037;-51
2023/05/24 09:42:27;;;;;;;8.27;2.73;;;;;;;23.27;54.25;102322.09;5056349;28;20033;-49
2023/05/24 09:45:08;;;;;;;11.33;3.67;;;;;;;23.75;53.00;102308.13;5054987;28;20056;-53
2023/05/24 09:47:36;;;;;;;9.70;1.90;;;;;;;24.19;51.71;102313.75;5058642;28;20125;-50
2023/05/24 09:50:03;;;;;;;14.40;3.27;;;;;;;24.25;51.68;102316.56;5059501;28;20079;-51
2023/05/24 09:52:29;;;;;;;11.23;2.53;;;;;;;24.39;52.16;102317.84;5057554;28;20021;-50
2023/05/24 09:54:55;;;;;;;8.38;2.72;;;;;;;24.57;51.12;102313.97;5059861;28;20065;-53
2023/05/24 09:57:21;;;;;;;8.05;2.17;;;;;;;25.11;49.59;102317.88;5057896;28;20113;-51
2023/05/24 09:59:51;;;;;;;15.53;4.50;;;;;;;25.08;50.03;102314.81;5058053;28;20057;-51
2023/05/24 10:02:20;;;;;;;13.57;3.50;;;;;;;25.39;47.43;102318.66;5058846;28;20037;-50
2023/05/24 10:04:46;;;;;;;9.17;3.37;;;;;;;25.35;46.23;102317.53;5057647;28;20036;-50
2023/05/24 10:07:12;;;;;;;;;;;;;;;25.14;46.55;102319.25;5060315;28;20101;-50
2023/05/24 10:09:38;;;;;;;8.27;2.80;;;;;;;25.27;46.92;102320.75;5063588;28;19928;-49
2023/05/24 10:12:05;;;;;;;9.45;3.25;;;;;;;25.34;46.52;102321.38;5057210;28;20084;-49
2023/05/24 10:14:33;;;;;;;7.57;2.73;;;;;;;25.52;45.15;102313.88;5056562;28;20044;-52
2023/05/24 10:16:59;;;;;;;6.63;2.10;;;;;;;25.44;46.65;102321.44;5055539;28;20037;-52
2023/05/24 10:19:24;;;;;;;6.70;1.95;;;;;;;25.18;47.75;102312.19;5055237;28;20037;-50
2023/05/24 10:21:52;;;;;;;9.43;2.58;;;;;;;25.43;44.89;102313.50;5053279;28;20041;-53
2023/05/24 10:24:23;;;;;;;7.63;2.40;;;;;;;24.71;48.36;102322.63;5055516;28;20022;-54
2023/05/24 10:26:51;;;;;;;8.50;2.10;;;;;;;24.97;47.57;102316.63;5053045;28;20061;-50
2023/05/24 10:29:28;;;;;;;9.30;2.70;;;;;;;25.02;48.42;102320.25;5054497;28;20037;-53
2023/05/24 10:31:55;;;;;;;9.93;2.83;;;;;;;25.06;47.38;102326.03;5054872;28;20092;-55
2023/05/24 10:34:20;;;;;;;16.03;2.60;;;;;;;25.23;47.24;102319.59;5059875;28;20032;-49
2023/05/24 10:36:46;;;;;;;;;;;;;;;24.90;47.73;102317.66;5055569;28;20121;-50
2023/05/24 10:39:12;;;;;;;6.20;2.57;;;;;;;24.96;46.98;102317.69;5056780;28;19917;-55
2023/05/24 10:41:40;;;;;;;9.85;3.10;;;;;;;24.92;46.36;102320.16;5058137;28;20036;-54
2023/05/24 10:44:11;;;;;;;14.13;3.33;;;;;;;24.72;46.89;102317.97;5052994;28;20092;-48
2023/05/24 10:47:00;;;;;;;11.97;2.90;;;;;;;24.99;46.81;102318.03;5055217;28;20033;-50
2023/05/24 10:49:26;;;;;;;10.57;2.90;;;;;;;24.89;46.67;102326.09;5057285;28;20025;-51
2023/05/24 10:52:01;;;;;;;7.05;1.90;;;;;;;24.96;48.22;102326.75;5061676;28;20032;-52
2023/05/24 10:54:27;;;;;;;9.23;2.40;;;;;;;25.01;46.74;102329.53;5056311;28;20060;-53
2023/05/24 10:56:52;;;;;;;13.48;3.28;;;;;;;24.97;45.71;102320.19;5057520;28;20054;-54
2023/05/24 10:59:38;;;;;;;11.75;2.72;;;;;;;25.16;45.89;102320.66;5061153;28;20037;-52
2023/05/24 11:02:08;;;;;;;12.40;2.90;;;;;;;25.60;45.58;102318.88;5056068;28;20101;-53
2023/05/24 11:04:42;;;;;;;9.13;2.80;;;;;;;25.91;45.28;102324.56;5058368;28;20025;-50
2023/05/24 11:07:08;;;;;;;17.63;3.60;;;;;;;25.84;45.49;102318.50;5053854;28;20025;-54
2023/05/24 11:09:36;;;;;;;11.83;3.23;;;;;;;26.01;45.23;102315.59;5029270;28;20046;-50
2023/05/24 11:12:06;;;;;;;10.87;2.83;;;;;;;26.63;45.27;102324.16;5017251;28;20048;-51
2023/05/24 11:14:36;;;;;;;8.10;2.43;;;;;;;27.28;43.96;102314.69;5029296;28;20073;-53
2023/05/24 11:17:01;;;;;;;11.90;3.17;;;;;;;27.19;43.09;102325.38;5022043;28;20057;-52